sensor_id;sensor_type;location;lat;lon;timestamp;pressure;altitude;pressure_sealevel;temperature;humidity
62122;BME280;48108;47.532;19.084;2022-09-28T03:50:54;99146.97;;;9.54;96.70
62122;BME280;48108;47.532;19.084;2022-09-28T04:02:09;99156.44;;;9.50;96.31
62122;BME280;48108;47.532;19.084;2022-09-28T04:05:12;99151.50;;;9.53;97.98
62122;BME280;48108;47.532;19.084;2022-09-28T04:08:15;99147.56;;;9.49;97.26
62122;BME280;48108;47.532;19.084;2022-09-28T04:11:20;99157.50;;;9.56;95.36
62122;BME280;48108;47.532;19.084;2022-09-28T04:14:22;99157.72;;;9.61;94.48
62122;BME280;48108;47.532;19.084;2022-09-28T04:17:26;99156.25;;;9.58;94.90
62122;BME280;48108;47.532;19.084;2022-09-28T04:20:30;99156.25;;;9.58;96.86
62122;BME280;48108;47.532;19.084;2022-09-28T04:23:36;99148.81;;;9.53;98.23
62122;BME280;48108;47.532;19.084;2022-09-28T04:26:39;99154.81;;;9.56;96.18
62122;BME280;48108;47.532;19.084;2022-09-28T04:29:42;99151.28;;;9.55;96.30
62122;BME280;48108;47.532;19.084;2022-09-28T04:32:48;99148.37;;;9.50;96.07
62122;BME280;48108;47.532;19.084;2022-09-28T04:36:17;99150.47;;;9.48;95.84
62122;BME280;48108;47.532;19.084;2022-09-28T04:39:22;99153.16;;;9.48;94.73
62122;BME280;48108;47.532;19.084;2022-09-28T04:42:26;99153.56;;;9.51;95.54
62122;BME280;48108;47.532;19.084;2022-09-28T04:45:29;99149.19;;;9.50;95.33
62122;BME280;48108;47.532;19.084;2022-09-28T04:48:33;99149.00;;;9.45;95.48
62122;BME280;48108;47.532;19.084;2022-09-28T04:51:36;99151.03;;;9.43;96.94
62122;BME280;48108;47.532;19.084;2022-09-28T04:54:38;99151.03;;;9.37;95.83
62122;BME280;48108;47.532;19.084;2022-09-28T04:57:41;99145.84;;;9.35;96.76
62122;BME280;48108;47.532;19.084;2022-09-28T05:00:44;99147.06;;;9.32;96.23
62122;BME280;48108;47.532;19.084;2022-09-28T05:03:49;99150.97;;;9.30;97.67
62122;BME280;48108;47.532;19.084;2022-09-28T05:06:53;99151.34;;;9.20;95.53
62122;BME280;48108;47.532;19.084;2022-09-28T05:09:56;99151.97;;;9.16;97.92
62122;BME280;48108;47.532;19.084;2022-09-28T05:13:00;99158.56;;;9.13;97.27
62122;BME280;48108;47.532;19.084;2022-09-28T05:16:03;99162.66;;;9.09;97.02
62122;BME280;48108;47.532;19.084;2022-09-28T05:19:09;99166.38;;;9.08;96.70
62122;BME280;48108;47.532;19.084;2022-09-28T05:22:13;99164.72;;;9.07;96.48
62122;BME280;48108;47.532;19.084;2022-09-28T05:25:16;99168.84;;;9.09;96.83
62122;BME280;48108;47.532;19.084;2022-09-28T05:28:26;99165.56;;;9.07;97.50
62122;BME280;48108;47.532;19.084;2022-09-28T05:31:30;99166.94;;;9.03;98.94
62122;BME280;48108;47.532;19.084;2022-09-28T05:34:35;99161.97;;;9.00;98.84
62122;BME280;48108;47.532;19.084;2022-09-28T05:37:39;99160.34;;;9.06;97.83
62122;BME280;48108;47.532;19.084;2022-09-28T05:40:42;99162.50;;;9.17;98.59
62122;BME280;48108;47.532;19.084;2022-09-28T05:43:45;99166.09;;;9.31;98.22
62122;BME280;48108;47.532;19.084;2022-09-28T05:46:48;99167.59;;;9.47;99.40
62122;BME280;48108;47.532;19.084;2022-09-28T05:49:52;99169.53;;;9.66;94.77
62122;BME280;48108;47.532;19.084;2022-09-28T05:53:00;99166.69;;;9.81;93.19
62122;BME280;48108;47.532;19.084;2022-09-28T05:56:03;99164.47;;;10.05;93.12
62122;BME280;48108;47.532;19.084;2022-09-28T05:59:06;99168.44;;;10.35;89.47
62122;BME280;48108;47.532;19.084;2022-09-28T06:02:08;99160.97;;;10.84;87.43
62122;BME280;48108;47.532;19.084;2022-09-28T06:05:12;99159.31;;;10.76;84.58
62122;BME280;48108;47.532;19.084;2022-09-28T06:08:15;99154.78;;;10.77;85.43
62122;BME280;48108;47.532;19.084;2022-09-28T06:11:18;99141.53;;;10.69;84.39
62122;BME280;48108;47.532;19.084;2022-09-28T06:14:22;99144.22;;;10.75;85.61
62122;BME280;48108;47.532;19.084;2022-09-28T06:25:39;99142.69;;;11.12;84.28
62122;BME280;48108;47.532;19.084;2022-09-28T06:28:44;99151.75;;;11.25;82.22
62122;BME280;48108;47.532;19.084;2022-09-28T06:31:50;99146.75;;;11.42;82.54
62122;BME280;48108;47.532;19.084;2022-09-28T06:34:56;99159.56;;;11.46;81.08
62122;BME280;48108;47.532;19.084;2022-09-28T06:42:59;99152.53;;;11.84;81.30
62122;BME280;48108;47.532;19.084;2022-09-28T06:46:03;99152.06;;;12.00;80.98
62122;BME280;48108;47.532;19.084;2022-09-28T06:49:31;99152.19;;;12.12;79.41
62122;BME280;48108;47.532;19.084;2022-09-28T06:52:39;99158.72;;;12.29;76.66
62122;BME280;48108;47.532;19.084;2022-09-28T06:55:45;99163.00;;;12.37;75.55
62122;BME280;48108;47.532;19.084;2022-09-28T06:58:51;99171.00;;;12.50;75.46
62122;BME280;48108;47.532;19.084;2022-09-28T07:01:54;99167.59;;;12.61;73.77
62122;BME280;48108;47.532;19.084;2022-09-28T07:04:57;99165.22;;;12.71;73.01
62122;BME280;48108;47.532;19.084;2022-09-28T07:08:02;99170.00;;;12.94;73.37
62122;BME280;48108;47.532;19.084;2022-09-28T07:11:09;99161.31;;;13.11;74.76
62122;BME280;48108;47.532;19.084;2022-09-28T07:21:26;99163.28;;;13.59;69.42
62122;BME280;48108;47.532;19.084;2022-09-28T07:24:33;99158.44;;;13.79;66.88
62122;BME280;48108;47.532;19.084;2022-09-28T07:27:43;99152.09;;;13.86;64.71
62122;BME280;48108;47.532;19.084;2022-09-28T07:30:46;99153.34;;;13.71;65.33
62122;BME280;48108;47.532;19.084;2022-09-28T07:33:49;99147.44;;;13.93;68.04
62122;BME280;48108;47.532;19.084;2022-09-28T07:36:53;99158.88;;;14.06;65.43
62122;BME280;48108;47.532;19.084;2022-09-28T07:39:59;99145.97;;;14.20;66.24
62122;BME280;48108;47.532;19.084;2022-09-28T07:43:21;99155.09;;;14.38;65.21
62122;BME280;48108;47.532;19.084;2022-09-28T07:46:24;99162.59;;;14.66;64.58
62122;BME280;48108;47.532;19.084;2022-09-28T07:49:29;99144.56;;;14.95;61.41
62122;BME280;48108;47.532;19.084;2022-09-28T07:52:32;99148.53;;;15.16;61.99
62122;BME280;48108;47.532;19.084;2022-09-28T08:03:44;99161.13;;;15.34;61.78
62122;BME280;48108;47.532;19.084;2022-09-28T08:06:48;99158.91;;;15.31;62.19
62122;BME280;48108;47.532;19.084;2022-09-28T08:09:52;99159.25;;;15.23;63.38
62122;BME280;48108;47.532;19.084;2022-09-28T08:12:58;99164.81;;;15.04;66.11
62122;BME280;48108;47.532;19.084;2022-09-28T08:16:08;99158.91;;;15.19;67.07
62122;BME280;48108;47.532;19.084;2022-09-28T08:19:11;99161.44;;;15.49;63.67
62122;BME280;48108;47.532;19.084;2022-09-28T08:30:12;99145.22;;;15.78;64.09
62122;BME280;48108;47.532;19.084;2022-09-28T08:33:17;99133.13;;;15.69;64.60
62122;BME280;48108;47.532;19.084;2022-09-28T08:36:32;99130.16;;;15.58;65.89
62122;BME280;48108;47.532;19.084;2022-09-28T08:47:02;99120.59;;;15.96;65.44
62122;BME280;48108;47.532;19.084;2022-09-28T08:50:12;99132.78;;;16.10;63.52
62122;BME280;48108;47.532;19.084;2022-09-28T08:53:28;99131.59;;;16.18;63.83
62122;BME280;48108;47.532;19.084;2022-09-28T08:59:43;99140.16;;;16.27;63.90
62122;BME280;48108;47.532;19.084;2022-09-28T09:02:50;99146.25;;;16.34;63.37
62122;BME280;48108;47.532;19.084;2022-09-28T09:09:38;99126.63;;;16.32;64.58
62122;BME280;48108;47.532;19.084;2022-09-28T09:16:22;99129.38;;;16.49;62.17
62122;BME280;48108;47.532;19.084;2022-09-28T09:22:45;99122.13;;;16.38;62.30
62122;BME280;48108;47.532;19.084;2022-09-28T09:25:57;99123.53;;;16.23;61.77
62122;BME280;48108;47.532;19.084;2022-09-28T09:29:08;99129.44;;;16.20;62.41
62122;BME280;48108;47.532;19.084;2022-09-28T09:46:22;99124.34;;;16.58;62.56
62122;BME280;48108;47.532;19.084;2022-09-28T09:52:58;99119.00;;;16.80;62.50
62122;BME280;48108;47.532;19.084;2022-09-28T09:56:13;99116.97;;;17.31;60.14
62122;BME280;48108;47.532;19.084;2022-09-28T09:59:25;99125.69;;;17.55;61.89
62122;BME280;48108;47.532;19.084;2022-09-28T10:02:32;99128.28;;;17.66;58.61
62122;BME280;48108;47.532;19.084;2022-09-28T10:05:37;99122.03;;;17.88;58.68
62122;BME280;48108;47.532;19.084;2022-09-28T10:08:47;99129.91;;;17.84;59.29
62122;BME280;48108;47.532;19.084;2022-09-28T10:11:53;99129.88;;;17.18;58.84
62122;BME280;48108;47.532;19.084;2022-09-28T10:14:56;99126.41;;;17.23;57.25
62122;BME280;48108;47.532;19.084;2022-09-28T10:18:04;99129.12;;;17.23;57.50
62122;BME280;48108;47.532;19.084;2022-09-28T10:21:30;99131.34;;;17.26;57.67
62122;BME280;48108;47.532;19.084;2022-09-28T10:24:43;99128.56;;;17.43;59.63
62122;BME280;48108;47.532;19.084;2022-09-28T10:27:48;99132.66;;;17.67;57.10
62122;BME280;48108;47.532;19.084;2022-09-28T10:30:54;99129.22;;;17.77;57.10
62122;BME280;48108;47.532;19.084;2022-09-28T10:33:57;99131.78;;;17.62;60.63
62122;BME280;48108;47.532;19.084;2022-09-28T10:37:02;99124.37;;;18.06;61.02
62122;BME280;48108;47.532;19.084;2022-09-28T10:47:42;99121.81;;;18.91;54.72
62122;BME280;48108;47.532;19.084;2022-09-28T10:51:02;99124.41;;;19.13;53.38
62122;BME280;48108;47.532;19.084;2022-09-28T10:54:20;99126.16;;;18.87;54.52
62122;BME280;48108;47.532;19.084;2022-09-28T10:57:33;99123.16;;;19.41;52.50
62122;BME280;48108;47.532;19.084;2022-09-28T11:00:41;99120.78;;;19.55;52.48
62122;BME280;48108;47.532;19.084;2022-09-28T11:03:58;99114.34;;;19.19;51.41
62122;BME280;48108;47.532;19.084;2022-09-28T11:07:01;99115.34;;;19.02;52.28
62122;BME280;48108;47.532;19.084;2022-09-28T11:10:04;99102.44;;;19.51;52.77
62122;BME280;48108;47.532;19.084;2022-09-28T11:13:11;99109.81;;;19.50;51.20
62122;BME280;48108;47.532;19.084;2022-09-28T11:19:41;99099.78;;;19.03;52.52
62122;BME280;48108;47.532;19.084;2022-09-28T11:22:45;99099.88;;;19.18;54.86
62122;BME280;48108;47.532;19.084;2022-09-28T11:25:58;99090.88;;;20.01;52.52
62122;BME280;48108;47.532;19.084;2022-09-28T11:29:03;99084.34;;;20.74;52.59
62122;BME280;48108;47.532;19.084;2022-09-28T11:32:11;99083.88;;;21.37;47.65
62122;BME280;48108;47.532;19.084;2022-09-28T11:35:26;99077.41;;;21.07;48.48
62122;BME280;48108;47.532;19.084;2022-09-28T11:38:38;99076.38;;;20.52;49.99
62122;BME280;48108;47.532;19.084;2022-09-28T11:42:03;99081.88;;;21.52;47.98
62122;BME280;48108;47.532;19.084;2022-09-28T11:45:36;99077.00;;;23.16;43.69
62122;BME280;48108;47.532;19.084;2022-09-28T11:48:49;99082.47;;;25.00;38.59
62122;BME280;48108;47.532;19.084;2022-09-28T11:51:55;99087.31;;;25.86;36.54
62122;BME280;48108;47.532;19.084;2022-09-28T11:55:08;99070.19;;;26.87;35.44
62122;BME280;48108;47.532;19.084;2022-09-28T11:58:24;99075.00;;;27.62;32.01
62122;BME280;48108;47.532;19.084;2022-09-28T12:01:42;99069.78;;;27.51;34.22
62122;BME280;48108;47.532;19.084;2022-09-28T12:04:56;99067.56;;;27.79;30.22
62122;BME280;48108;47.532;19.084;2022-09-28T12:11:20;99055.41;;;26.83;31.59
62122;BME280;48108;47.532;19.084;2022-09-28T12:14:32;99046.38;;;28.36;30.34
62122;BME280;48108;47.532;19.084;2022-09-28T12:17:45;99035.25;;;28.70;30.46
62122;BME280;48108;47.532;19.084;2022-09-28T12:21:02;99031.47;;;29.43;27.81
62122;BME280;48108;47.532;19.084;2022-09-28T12:30:31;99035.78;;;28.38;28.98
62122;BME280;48108;47.532;19.084;2022-09-28T12:33:35;99024.19;;;27.31;31.06
62122;BME280;48108;47.532;19.084;2022-09-28T12:37:07;99026.56;;;27.90;29.31
62122;BME280;48108;47.532;19.084;2022-09-28T12:40:40;99013.31;;;28.86;29.22
62122;BME280;48108;47.532;19.084;2022-09-28T12:43:55;99009.28;;;28.19;30.82
62122;BME280;48108;47.532;19.084;2022-09-28T12:54:01;99000.25;;;27.09;31.44
62122;BME280;48108;47.532;19.084;2022-09-28T13:14:45;99014.84;;;28.75;27.77
62122;BME280;48108;47.532;19.084;2022-09-28T13:21:42;98997.84;;;25.55;33.81
62122;BME280;48108;47.532;19.084;2022-09-28T13:24:54;98996.13;;;25.82;33.03
62122;BME280;48108;47.532;19.084;2022-09-28T13:28:01;98998.34;;;24.33;35.63
62122;BME280;48108;47.532;19.084;2022-09-28T13:31:06;98998.47;;;23.76;36.69
62122;BME280;48108;47.532;19.084;2022-09-28T13:34:13;99009.66;;;23.61;35.92
62122;BME280;48108;47.532;19.084;2022-09-28T13:37:22;99002.25;;;22.76;37.39
62122;BME280;48108;47.532;19.084;2022-09-28T13:51:11;98996.31;;;20.56;43.34
62122;BME280;48108;47.532;19.084;2022-09-28T13:58:01;98990.28;;;19.62;44.97
62122;BME280;48108;47.532;19.084;2022-09-28T14:01:11;98992.06;;;19.06;46.49
62122;BME280;48108;47.532;19.084;2022-09-28T14:04:22;99008.25;;;18.70;46.94
62122;BME280;48108;47.532;19.084;2022-09-28T14:07:56;99000.84;;;18.65;47.06
62122;BME280;48108;47.532;19.084;2022-09-28T14:11:29;98988.56;;;18.57;48.79
62122;BME280;48108;47.532;19.084;2022-09-28T14:14:50;98990.34;;;18.42;49.32
62122;BME280;48108;47.532;19.084;2022-09-28T14:18:18;98994.97;;;18.78;47.94
62122;BME280;48108;47.532;19.084;2022-09-28T14:25:09;98994.31;;;18.71;48.34
62122;BME280;48108;47.532;19.084;2022-09-28T14:31:39;98986.59;;;18.95;46.29
62122;BME280;48108;47.532;19.084;2022-09-28T14:34:45;98992.28;;;18.94;47.65
62122;BME280;48108;47.532;19.084;2022-09-28T14:37:52;98986.66;;;18.63;47.01
62122;BME280;48108;47.532;19.084;2022-09-28T14:44:19;98975.25;;;18.24;47.77
62122;BME280;48108;47.532;19.084;2022-09-28T14:47:43;98974.44;;;18.23;47.83
62122;BME280;48108;47.532;19.084;2022-09-28T14:50:46;98987.56;;;17.94;50.15
62122;BME280;48108;47.532;19.084;2022-09-28T14:57:15;98983.41;;;17.81;49.59
62122;BME280;48108;47.532;19.084;2022-09-28T15:00:23;98972.91;;;17.68;51.93
62122;BME280;48108;47.532;19.084;2022-09-28T15:03:29;98974.75;;;17.62;51.85
62122;BME280;48108;47.532;19.084;2022-09-28T15:06:44;98980.94;;;17.58;51.77
62122;BME280;48108;47.532;19.084;2022-09-28T15:09:52;98963.72;;;17.47;51.73
62122;BME280;48108;47.532;19.084;2022-09-28T15:12:57;98966.53;;;17.30;52.57
62122;BME280;48108;47.532;19.084;2022-09-28T15:16:06;98965.66;;;17.25;52.99
62122;BME280;48108;47.532;19.084;2022-09-28T15:19:25;98965.22;;;17.33;52.83
62122;BME280;48108;47.532;19.084;2022-09-28T15:22:35;98966.47;;;17.20;54.00
62122;BME280;48108;47.532;19.084;2022-09-28T15:25:38;98960.44;;;17.18;53.85
62122;BME280;48108;47.532;19.084;2022-09-28T15:28:43;98952.22;;;17.13;54.79
62122;BME280;48108;47.532;19.084;2022-09-28T15:31:46;98961.56;;;17.22;55.35
62122;BME280;48108;47.532;19.084;2022-09-28T15:34:55;98953.25;;;17.07;55.61
62122;BME280;48108;47.532;19.084;2022-09-28T15:37:59;98953.44;;;17.00;56.56
62122;BME280;48108;47.532;19.084;2022-09-28T15:41:04;98952.06;;;16.97;55.72
62122;BME280;48108;47.532;19.084;2022-09-28T15:47:27;98955.00;;;16.74;55.49
62122;BME280;48108;47.532;19.084;2022-09-28T15:50:30;98962.19;;;16.80;55.81
62122;BME280;48108;47.532;19.084;2022-09-28T15:53:41;98963.03;;;16.64;57.17
62122;BME280;48108;47.532;19.084;2022-09-28T15:56:53;98972.97;;;16.53;56.19
62122;BME280;48108;47.532;19.084;2022-09-28T15:59:57;98977.91;;;16.39;58.57
